Time;durP1;ratioP1;P1;durP2;ratioP2;P2;SDS_P1;SDS_P2;PMS_P1;PMS_P2;Temp;Humidity;BMP_temperature;BMP_pressure;BME280_temperature;BME280_humidity;BME280_pressure;Samples;Min_cycle;Max_cycle;Signal;HPM_P1;HPM_P2
2021/12/23 00:02:06;;;;;;;10.10;8.27;;;;;;;;;;5020340;28;20390;-52
2021/12/23 00:04:32;;;;;;;18.98;9.13;;;;;;;;;;5033939;28;20032;-52
2021/12/23 00:06:57;;;;;;;13.95;9.35;;;;;;;;;;5021549;28;20394;-48
2021/12/23 00:09:31;;;;;;;18.63;9.20;;;;;;;;;;5024274;28;20033;-50
2021/12/23 00:11:57;;;;;;;13.73;9.32;;;;;;;;;;5033073;28;20029;-52
2021/12/23 00:14:22;;;;;;;13.38;8.65;;;;;;;;;;5023087;28;20033;-51
2021/12/23 00:17:17;;;;;;;12.77;8.35;;;;;;;;;;5019773;28;20030;-49
2021/12/23 00:19:47;;;;;;;13.40;9.15;;;;;;;;;;5024198;28;20022;-49
2021/12/23 00:24:57;;;;;;;9.75;7.82;;;;;;;;;;5023139;28;20104;-49
2021/12/23 00:27:23;;;;;;;15.30;9.23;;;;;;;;;;5030485;28;20482;-49
2021/12/23 00:29:48;;;;;;;12.48;8.20;;;;;;;;;;5021028;28;20037;-48
2021/12/23 00:32:14;;;;;;;12.73;8.45;;;;;;;;;;5019103;28;20037;-49
2021/12/23 00:34:40;;;;;;;10.38;7.57;;;;;;;;;;5021279;28;20501;-51
2021/12/23 00:37:11;;;;;;;11.43;7.35;;;;;;;;;;5022688;28;20026;-51
2021/12/23 00:39:37;;;;;;;15.18;8.27;;;;;;;;;;5020150;28;20445;-50
2021/12/23 00:42:07;;;;;;;12.30;9.10;;;;;;;;;;5024666;28;20072;-53
2021/12/23 00:44:35;;;;;;;9.38;7.85;;;;;;;;;;5020887;28;20038;-47
2021/12/23 00:47:01;;;;;;;9.55;7.78;;;;;;;;;;5019839;28;20478;-54
2021/12/23 00:49:27;;;;;;;11.02;7.82;;;;;;;;;;5028421;28;20042;-53
2021/12/23 00:51:54;;;;;;;10.35;7.38;;;;;;;;;;5021494;28;20143;-50
2021/12/23 00:54:19;;;;;;;13.98;8.50;;;;;;;;;;5030071;28;20045;-52
2021/12/23 00:56:49;;;;;;;12.43;8.60;;;;;;;;;;5026781;28;20039;-53
2021/12/23 00:59:14;;;;;;;10.27;7.43;;;;;;;;;;5023257;28;20036;-49
2021/12/23 01:01:41;;;;;;;14.82;8.10;;;;;;;;;;5023270;28;20391;-52
2021/12/23 01:04:07;;;;;;;12.43;7.25;;;;;;;;;;5031581;28;20506;-46
2021/12/23 01:06:33;;;;;;;13.10;7.68;;;;;;;;;;5036381;28;20076;-47
2021/12/23 01:08:59;;;;;;;12.45;7.32;;;;;;;;;;5027146;28;20470;-52
2021/12/23 01:11:25;;;;;;;14.02;8.10;;;;;;;;;;5021343;28;20037;-50
2021/12/23 01:14:26;;;;;;;13.85;7.32;;;;;;;;;;5022994;28;20037;-47
2021/12/23 01:17:11;;;;;;;12.45;7.60;;;;;;;;;;5025034;28;20517;-47
2021/12/23 01:19:39;;;;;;;13.57;8.07;;;;;;;;;;5024240;28;20084;-52
2021/12/23 01:22:07;;;;;;;8.50;7.13;;;;;;;;;;5033233;28;20049;-50
2021/12/23 01:24:33;;;;;;;11.85;7.78;;;;;;;;;;5024001;28;20493;-50
2021/12/23 01:27:01;;;;;;;12.95;8.00;;;;;;;;;;5024348;28;20088;-50
2021/12/23 01:29:27;;;;;;;10.02;7.63;;;;;;;;;;5023477;28;20436;-53
2021/12/23 01:31:53;;;;;;;12.57;7.47;;;;;;;;;;5038273;28;20091;-50
2021/12/23 01:34:18;;;;;;;12.20;7.53;;;;;;;;;;5026364;28;20037;-47
2021/12/23 01:36:44;;;;;;;10.60;8.10;;;;;;;;;;5025999;28;20461;-48
2021/12/23 01:39:10;;;;;;;10.10;7.15;;;;;;;;;;5036321;28;20033;-51
2021/12/23 01:41:36;;;;;;;11.48;7.47;;;;;;;;;;5030566;28;20035;-51
2021/12/23 01:44:03;;;;;;;11.77;7.35;;;;;;;;;;5015750;28;20026;-52
2021/12/23 01:46:29;;;;;;;10.18;6.35;;;;;;;;;;5027486;28;20372;-48
2021/12/23 01:48:54;;;;;;;10.88;6.60;;;;;;;;;;5024701;28;20037;-48
2021/12/23 01:51:20;;;;;;;13.52;7.03;;;;;;;;;;5016980;28;20030;-52
2021/12/23 01:53:46;;;;;;;7.70;6.90;;;;;;;;;;5015385;28;20033;-49
2021/12/23 01:56:12;;;;;;;9.45;6.63;;;;;;;;;;5022061;28;20034;-48
2021/12/23 01:58:40;;;;;;;11.68;6.75;;;;;;;;;;5021637;28;20394;-49
2021/12/23 02:01:08;;;;;;;13.35;6.35;;;;;;;;;;5023844;28;20029;-52
2021/12/23 02:03:34;;;;;;;7.78;6.57;;;;;;;;;;5031950;28;20033;-49
2021/12/23 02:06:00;;;;;;;12.60;7.10;;;;;;;;;;5028002;28;20443;-53
2021/12/23 02:08:26;;;;;;;10.07;7.22;;;;;;;;;;5027584;28;20104;-52
2021/12/23 02:10:55;;;;;;;13.07;7.10;;;;;;;;;;5048017;28;20025;-52
2021/12/23 02:13:22;;;;;;;10.45;7.10;;;;;;;;;;5026625;28;20044;-49
2021/12/23 02:15:48;;;;;;;8.32;6.85;;;;;;;;;;5029915;28;20382;-53
2021/12/23 02:18:13;;;;;;;11.82;6.50;;;;;;;;;;5022084;28;20037;-50
2021/12/23 02:20:39;;;;;;;9.05;7.22;;;;;;;;;;5028424;28;20400;-54
2021/12/23 02:23:08;;;;;;;8.90;6.85;;;;;;;;;;5022472;28;20076;-54
2021/12/23 02:25:34;;;;;;;11.05;7.43;;;;;;;;;;5021734;28;20030;-53
2021/12/23 02:28:07;;;;;;;8.65;6.85;;;;;;;;;;5035875;28;20048;-51
2021/12/23 02:30:33;;;;;;;;;;;;;;;;;;5033351;28;20113;-48
2021/12/23 02:32:59;;;;;;;10.07;6.20;;;;;;;;;;5031871;28;20003;-52
2021/12/23 02:35:27;;;;;;;12.82;7.38;;;;;;;;;;5022610;28;20041;-49
2021/12/23 02:37:53;;;;;;;8.65;6.88;;;;;;;;;;5025729;28;20049;-52
2021/12/23 02:40:40;;;;;;;12.63;7.22;;;;;;;;;;5023834;28;20065;-49
2021/12/23 02:43:08;;;;;;;10.93;6.80;;;;;;;;;;5024726;28;20041;-53
2021/12/23 02:45:34;;;;;;;11.75;7.40;;;;;;;;;;5020605;28;20061;-55
2021/12/23 02:47:59;;;;;;;13.43;6.88;;;;;;;;;;5028783;28;20052;-52
2021/12/23 02:50:25;;;;;;;8.63;6.53;;;;;;;;;;5019365;28;20032;-54
2021/12/23 02:52:51;;;;;;;7.57;6.70;;;;;;;;;;5022105;28;20045;-55
2021/12/23 02:55:20;;;;;;;9.63;7.28;;;;;;;;;;5025803;28;20034;-53
2021/12/23 02:57:46;;;;;;;9.98;7.05;;;;;;;;;;5024266;28;20379;-50
2021/12/23 03:00:13;;;;;;;8.55;6.40;;;;;;;;;;5018561;28;20024;-53
2021/12/23 03:02:40;;;;;;;16.23;7.13;;;;;;;;;;5027156;28;20021;-55
2021/12/23 03:05:07;;;;;;;10.43;6.88;;;;;;;;;;5024012;28;20061;-55
2021/12/23 03:07:34;;;;;;;8.48;6.57;;;;;;;;;;5025603;28;20048;-55
2021/12/23 03:10:01;;;;;;;7.78;6.43;;;;;;;;;;5020993;28;20116;-48
2021/12/23 03:12:27;;;;;;;9.52;6.47;;;;;;;;;;5025380;28;20079;-53
2021/12/23 03:14:52;;;;;;;8.75;6.28;;;;;;;;;;5023892;28;20033;-53
2021/12/23 03:17:18;;;;;;;11.43;6.72;;;;;;;;;;5025588;28;20040;-51
2021/12/23 03:19:44;;;;;;;9.40;6.80;;;;;;;;;;5027288;28;20018;-55
2021/12/23 03:22:09;;;;;;;12.57;7.25;;;;;;;;;;5022724;28;20123;-52
2021/12/23 03:24:35;;;;;;;7.75;6.93;;;;;;;;;;5024861;28;20029;-52
2021/12/23 03:27:01;;;;;;;10.02;7.07;;;;;;;;;;5019808;28;21766;-53
2021/12/23 03:29:27;;;;;;;8.45;6.60;;;;;;;;;;5022870;28;20033;-53
2021/12/23 03:31:53;;;;;;;9.90;6.60;;;;;;;;;;5023177;28;20497;-51
2021/12/23 03:34:18;;;;;;;7.03;6.10;;;;;;;;;;5034881;28;20143;-52
2021/12/23 03:36:44;;;;;;;10.02;6.30;;;;;;;;;;5021885;28;20504;-54
2021/12/23 03:39:10;;;;;;;9.75;7.00;;;;;;;;;;5025490;28;20025;-53
2021/12/23 03:41:36;;;;;;;10.18;6.53;;;;;;;;;;5027590;28;20515;-50
2021/12/23 03:44:03;;;;;;;7.18;6.45;;;;;;;;;;5022621;28;20028;-56
2021/12/23 03:46:28;;;;;;;10.18;6.20;;;;;;;;;;5030713;28;20037;-52
2021/12/23 03:48:54;;;;;;;17.40;7.63;;;;;;;;;;5021187;28;20036;-54
2021/12/23 03:51:20;;;;;;;9.25;6.10;;;;;;;;;;5033068;28;20053;-54
2021/12/23 03:53:46;;;;;;;9.25;6.25;;;;;;;;;;5024307;28;20040;-51
2021/12/23 03:56:11;;;;;;;7.07;6.30;;;;;;;;;;5019435;28;20425;-54
2021/12/23 03:58:37;;;;;;;7.03;6.20;;;;;;;;;;5020730;28;20052;-51
2021/12/23 04:01:05;;;;;;;7.80;6.65;;;;;;;;;;5025868;28;20372;-51
2021/12/23 04:03:31;;;;;;;6.90;5.75;;;;;;;;;;5025899;28;20061;-53
2021/12/23 04:05:56;;;;;;;6.68;5.68;;;;;;;;;;5026101;28;20064;-54
2021/12/23 04:08:22;;;;;;;10.60;5.78;;;;;;;;;;5020362;28;20059;-55
2021/12/23 04:10:48;;;;;;;7.03;5.63;;;;;;;;;;5025078;28;20022;-56
2021/12/23 04:13:14;;;;;;;7.18;5.85;;;;;;;;;;5019670;28;20056;-55
2021/12/23 04:15:39;;;;;;;10.95;5.93;;;;;;;;;;5023787;28;20026;-56
2021/12/23 04:18:05;;;;;;;7.35;5.47;;;;;;;;;;5022549;28;20025;-50
2021/12/23 04:20:35;;;;;;;9.38;5.38;;;;;;;;;;5027468;28;20072;-54
2021/12/23 04:23:02;;;;;;;6.15;5.40;;;;;;;;;;5039077;28;20051;-53
2021/12/23 04:25:28;;;;;;;6.70;5.55;;;;;;;;;;5023648;28;20033;-54
2021/12/23 04:27:58;;;;;;;11.45;6.07;;;;;;;;;;5035017;28;20096;-55
2021/12/23 04:30:24;;;;;;;8.02;5.50;;;;;;;;;;5024806;28;20072;-53
2021/12/23 04:32:50;;;;;;;9.20;6.53;;;;;;;;;;5025620;28;20029;-53
2021/12/23 04:35:15;;;;;;;7.05;5.13;;;;;;;;;;5027098;28;20148;-55
2021/12/23 04:37:41;;;;;;;14.95;6.00;;;;;;;;;;5029459;28;20033;-55
2021/12/23 04:40:09;;;;;;;7.70;5.80;;;;;;;;;;5028453;28;20524;-55
2021/12/23 04:42:35;;;;;;;10.07;5.32;;;;;;;;;;5026810;28;20062;-55
2021/12/23 04:45:02;;;;;;;6.78;5.60;;;;;;;;;;5034393;28;20033;-55
2021/12/23 04:47:29;;;;;;;14.00;5.40;;;;;;;;;;5028574;28;20562;-53
2021/12/23 04:49:54;;;;;;;9.10;5.55;;;;;;;;;;5025731;28;20033;-55
2021/12/23 04:52:20;;;;;;;10.18;5.40;;;;;;;;;;5023256;28;20058;-54
2021/12/23 04:54:46;;;;;;;15.70;6.00;;;;;;;;;;5041623;28;20037;-56
2021/12/23 04:57:12;;;;;;;6.43;5.30;;;;;;;;;;5037367;28;20045;-56
2021/12/23 04:59:38;;;;;;;6.88;5.88;;;;;;;;;;5023867;28;20033;-54
2021/12/23 05:02:04;;;;;;;11.85;6.05;;;;;;;;;;5023044;28;20383;-50
2021/12/23 05:04:29;;;;;;;12.50;5.55;;;;;;;;;;5026982;28;20093;-48
2021/12/23 05:06:55;;;;;;;8.68;5.18;;;;;;;;;;5035143;28;20615;-51
2021/12/23 05:09:20;;;;;;;6.65;5.20;;;;;;;;;;5034048;28;20021;-48
2021/12/23 05:11:46;;;;;;;6.57;5.32;;;;;;;;;;5025349;28;20021;-51
2021/12/23 05:14:12;;;;;;;9.23;5.70;;;;;;;;;;5024881;28;20037;-48
2021/12/23 05:16:38;;;;;;;11.27;5.82;;;;;;;;;;5031928;28;20033;-51
2021/12/23 05:19:04;;;;;;;5.65;4.90;;;;;;;;;;5028843;28;20037;-51
2021/12/23 05:21:30;;;;;;;7.80;5.50;;;;;;;;;;5025321;28;20038;-48
2021/12/23 05:23:56;;;;;;;7.20;5.45;;;;;;;;;;5029903;28;20515;-50
2021/12/23 05:26:22;;;;;;;10.10;5.55;;;;;;;;;;5029750;28;20029;-49
2021/12/23 05:28:48;;;;;;;6.25;4.85;;;;;;;;;;5024702;28;20025;-51
2021/12/23 05:31:14;;;;;;;8.75;5.40;;;;;;;;;;5029597;28;20148;-51
2021/12/23 05:33:39;;;;;;;7.68;4.90;;;;;;;;;;5025707;28;20366;-51
2021/12/23 05:36:05;;;;;;;6.20;4.80;;;;;;;;;;5029525;28;20035;-51
2021/12/23 05:38:31;;;;;;;8.30;5.55;;;;;;;;;;5022689;28;20161;-48
2021/12/23 05:40:56;;;;;;;8.02;5.40;;;;;;;;;;5027455;28;20027;-49
2021/12/23 05:43:22;;;;;;;6.65;5.18;;;;;;;;;;5027675;28;20040;-52
2021/12/23 05:45:48;;;;;;;6.45;5.53;;;;;;;;;;5029674;28;20128;-49
2021/12/23 05:48:14;;;;;;;10.95;5.70;;;;;;;;;;5025257;28;20029;-50
2021/12/23 05:50:40;;;;;;;6.13;4.80;;;;;;;;;;5028452;28;20025;-49
2021/12/23 05:53:06;;;;;;;7.15;5.45;;;;;;;;;;5019661;28;20466;-49
2021/12/23 05:55:31;;;;;;;8.00;5.13;;;;;;;;;;5025923;28;20038;-52
2021/12/23 05:57:57;;;;;;;8.80;5.40;;;;;;;;;;5016468;28;20056;-49
2021/12/23 06:00:26;;;;;;;9.52;6.13;;;;;;;;;;5025969;28;20033;-47
2021/12/23 06:02:54;;;;;;;9.43;5.43;;;;;;;;;;5032030;28;20026;-51
2021/12/23 06:05:20;;;;;;;7.20;5.60;;;;;;;;;;5027812;28;20101;-48
2021/12/23 06:07:46;;;;;;;16.58;5.55;;;;;;;;;;5024263;28;20037;-48
2021/12/23 06:10:14;;;;;;;7.18;5.25;;;;;;;;;;5029172;28;20037;-47
2021/12/23 06:12:40;;;;;;;7.07;5.80;;;;;;;;;;5025723;28;20089;-48
2021/12/23 06:15:06;;;;;;;10.32;5.32;;;;;;;;;;5024656;28;20531;-52
2021/12/23 06:17:32;;;;;;;8.75;5.57;;;;;;;;;;5020346;28;20068;-53
2021/12/23 06:19:58;;;;;;;8.13;5.55;;;;;;;;;;5023495;28;20049;-48
2021/12/23 06:22:24;;;;;;;6.78;5.32;;;;;;;;;;5040247;28;20560;-51
2021/12/23 06:24:50;;;;;;;8.10;6.10;;;;;;;;;;5028678;28;20033;-54
2021/12/23 06:27:17;;;;;;;6.40;5.10;;;;;;;;;;5026135;28;20041;-47
2021/12/23 06:29:43;;;;;;;8.05;5.38;;;;;;;;;;5031899;28;20048;-53
2021/12/23 06:32:09;;;;;;;5.93;5.07;;;;;;;;;;5026555;28;20124;-49
2021/12/23 06:34:35;;;;;;;8.27;6.10;;;;;;;;;;5028133;28;20109;-51
2021/12/23 06:37:01;;;;;;;9.68;5.40;;;;;;;;;;5021415;28;20112;-48
2021/12/23 06:39:27;;;;;;;8.45;6.07;;;;;;;;;;5022490;28;20078;-48
2021/12/23 06:41:53;;;;;;;8.07;4.95;;;;;;;;;;5025752;28;20041;-49
2021/12/23 06:44:20;;;;;;;5.35;4.85;;;;;;;;;;5018711;28;20038;-50
2021/12/23 06:46:46;;;;;;;9.50;5.40;;;;;;;;;;5029495;28;20561;-54
2021/12/23 06:49:12;;;;;;;6.63;5.20;;;;;;;;;;5027918;28;20109;-53
2021/12/23 06:51:38;;;;;;;6.47;5.50;;;;;;;;;;5027129;28;20033;-48
2021/12/23 06:54:04;;;;;;;9.68;5.22;;;;;;;;;;5029704;28;20035;-48
2021/12/23 06:56:29;;;;;;;6.80;5.85;;;;;;;;;;5020452;28;20116;-49
2021/12/23 06:58:55;;;;;;;11.25;5.00;;;;;;;;;;5028771;28;20072;-47
2021/12/23 07:01:21;;;;;;;8.20;5.20;;;;;;;;;;5033243;28;20053;-52
2021/12/23 07:06:35;;;;;;;5.75;5.00;;;;;;;;;;5025958;28;20037;-48
2021/12/23 07:09:05;;;;;;;13.45;5.53;;;;;;;;;;5026542;28;20106;-51
2021/12/23 07:11:34;;;;;;;8.57;5.18;;;;;;;;;;5022638;28;20029;-49
2021/12/23 07:14:00;;;;;;;7.43;5.05;;;;;;;;;;5015295;28;20026;-48
2021/12/23 07:16:26;;;;;;;8.82;5.65;;;;;;;;;;5031987;28;20501;-50
2021/12/23 07:18:51;;;;;;;11.98;5.55;;;;;;;;;;5029979;28;20028;-53
2021/12/23 07:21:17;;;;;;;8.77;5.25;;;;;;;;;;5027311;28;20025;-49
2021/12/23 07:23:43;;;;;;;10.68;5.57;;;;;;;;;;5026122;28;20057;-55
2021/12/23 07:26:10;;;;;;;7.38;5.30;;;;;;;;;;5022757;28;20042;-47
2021/12/23 07:28:36;;;;;;;10.55;5.28;;;;;;;;;;5022413;28;20539;-54
2021/12/23 07:31:02;;;;;;;11.45;5.55;;;;;;;;;;5027311;28;20077;-50
2021/12/23 07:33:28;;;;;;;7.95;5.35;;;;;;;;;;5025215;28;20087;-47
2021/12/23 07:35:53;;;;;;;9.40;5.35;;;;;;;;;;5017640;28;20055;-51
2021/12/23 07:38:19;;;;;;;8.73;5.15;;;;;;;;;;5022743;28;20049;-50
2021/12/23 07:40:46;;;;;;;8.60;4.93;;;;;;;;;;5028757;28;20069;-51
2021/12/23 07:45:56;;;;;;;6.80;5.30;;;;;;;;;;5034606;28;20124;-53
2021/12/23 07:48:21;;;;;;;5.13;4.63;;;;;;;;;;5021077;28;20115;-51
2021/12/23 07:50:47;;;;;;;11.07;5.38;;;;;;;;;;5023774;28;20028;-53
2021/12/23 07:53:13;;;;;;;7.93;5.50;;;;;;;;;;5015439;28;20057;-54
2021/12/23 07:55:42;;;;;;;9.55;5.82;;;;;;;;;;5016374;28;20042;-51
2021/12/23 07:58:09;;;;;;;7.30;5.30;;;;;;;;;;5025168;28;20103;-50
2021/12/23 08:00:35;;;;;;;14.45;5.75;;;;;;;;;;5026735;28;20068;-51
2021/12/23 08:03:01;;;;;;;9.23;6.30;;;;;;;;;;5024295;28;20129;-55
2021/12/23 08:05:27;;;;;;;15.40;6.15;;;;;;;;;;5027440;28;20064;-48
2021/12/23 08:07:54;;;;;;;10.48;6.80;;;;;;;;;;5030309;28;20407;-49
2021/12/23 08:10:20;;;;;;;9.98;6.75;;;;;;;;;;5030084;28;20033;-54
2021/12/23 08:12:46;;;;;;;10.15;7.03;;;;;;;;;;5029668;28;20034;-50
2021/12/23 08:15:12;;;;;;;15.75;7.22;;;;;;;;;;5022825;28;20088;-50
2021/12/23 08:17:38;;;;;;;10.85;6.35;;;;;;;;;;5024070;28;20444;-47
2021/12/23 08:20:06;;;;;;;10.73;6.80;;;;;;;;;;5028294;28;20030;-50
2021/12/23 08:22:32;;;;;;;10.45;7.07;;;;;;;;;;5023571;28;20057;-50
2021/12/23 08:24:57;;;;;;;11.73;6.68;;;;;;;;;;5022596;28;20053;-52
2021/12/23 08:27:27;;;;;;;12.57;7.07;;;;;;;;;;5026501;28;20479;-51
2021/12/23 08:29:52;;;;;;;11.75;6.68;;;;;;;;;;5026916;28;20490;-50
2021/12/23 08:32:22;;;;;;;13.95;5.68;;;;;;;;;;5028032;28;20050;-53
2021/12/23 08:34:48;;;;;;;10.20;5.10;;;;;;;;;;5020511;28;20030;-50
2021/12/23 08:37:15;;;;;;;8.85;5.55;;;;;;;;;;5025201;28;20033;-49
2021/12/23 08:39:41;;;;;;;7.10;5.00;;;;;;;;;;5024972;28;20110;-50
2021/12/23 08:42:08;;;;;;;9.15;5.43;;;;;;;;;;5023761;28;20033;-49
2021/12/23 08:44:34;;;;;;;7.18;5.40;;;;;;;;;;5019413;28;20125;-47
2021/12/23 08:47:00;;;;;;;12.23;5.85;;;;;;;;;;5014622;28;20041;-53
2021/12/23 08:49:26;;;;;;;10.98;5.20;;;;;;;;;;5025292;28;20036;-50
2021/12/23 08:51:52;;;;;;;8.90;5.07;;;;;;;;;;5023760;28;20030;-49
2021/12/23 08:54:18;;;;;;;6.65;5.07;;;;;;;;;;5027834;28;20033;-51
2021/12/23 08:56:44;;;;;;;6.85;5.25;;;;;;;;;;5023130;28;20386;-52
2021/12/23 08:59:10;;;;;;;12.55;4.80;;;;;;;;;;5023950;28;20034;-48
2021/12/23 09:01:36;;;;;;;7.95;5.30;;;;;;;;;;5020494;28;20509;-53
2021/12/23 09:04:02;;;;;;;9.98;5.25;;;;;;;;;;5015361;28;20359;-49
2021/12/23 09:06:27;;;;;;;10.20;5.35;;;;;;;;;;5019677;28;20073;-48
2021/12/23 09:08:54;;;;;;;7.88;5.50;;;;;;;;;;5022678;28;20081;-48
2021/12/23 09:11:20;;;;;;;10.00;5.68;;;;;;;;;;5024935;28;20538;-50
2021/12/23 09:13:46;;;;;;;10.57;5.70;;;;;;;;;;5030895;28;20087;-53
2021/12/23 09:16:12;;;;;;;10.02;6.35;;;;;;;;;;5032256;28;20437;-50
2021/12/23 09:18:38;;;;;;;10.02;6.25;;;;;;;;;;5039160;28;20053;-50
2021/12/23 09:21:04;;;;;;;10.63;6.93;;;;;;;;;;5032917;28;20437;-51
2021/12/23 09:23:31;;;;;;;12.75;6.95;;;;;;;;;;5036768;28;20041;-53
2021/12/23 09:25:56;;;;;;;11.63;7.05;;;;;;;;;;5029190;28;20040;-54
2021/12/23 09:28:34;;;;;;;11.50;6.88;;;;;;;;;;5027302;28;20041;-55
2021/12/23 09:33:45;;;;;;;11.60;7.47;;;;;;;;;;5024079;28;20041;-48
2021/12/23 09:36:12;;;;;;;10.10;6.55;;;;;;;;;;5019377;28;20509;-54
2021/12/23 09:38:38;;;;;;;7.82;5.88;;;;;;;;;;5028392;28;20074;-50
2021/12/23 09:41:09;;;;;;;12.82;6.55;;;;;;;;;;5017653;28;20025;-47
2021/12/23 09:43:36;;;;;;;7.60;5.85;;;;;;;;;;5019098;28;20042;-53
2021/12/23 09:46:04;;;;;;;9.43;6.22;;;;;;;;;;5022844;28;20372;-52
2021/12/23 09:48:32;;;;;;;9.73;5.82;;;;;;;;;;5034457;28;20029;-53
2021/12/23 09:51:02;;;;;;;7.38;5.75;;;;;;;;;;5020966;28;20041;-50
2021/12/23 09:53:30;;;;;;;10.70;6.05;;;;;;;;;;5020694;28;20041;-52
2021/12/23 09:55:59;;;;;;;7.30;6.22;;;;;;;;;;5025301;28;20051;-55
2021/12/23 09:58:24;;;;;;;11.18;6.57;;;;;;;;;;5022673;28;20029;-51
2021/12/23 10:00:51;;;;;;;15.40;6.63;;;;;;;;;;5027642;28;20029;-52
2021/12/23 10:03:22;;;;;;;18.77;6.30;;;;;;;;;;5031827;28;20490;-50
2021/12/23 10:05:48;;;;;;;7.07;5.80;;;;;;;;;;5025759;28;20112;-48
2021/12/23 10:08:14;;;;;;;7.75;5.63;;;;;;;;;;5026116;28;20121;-54
2021/12/23 10:38:09;;;;;;;13.25;6.93;;;;;;;;;;5025503;28;20033;-52
2021/12/23 10:40:36;;;;;;;11.32;6.63;;;;;;;;;;5025146;28;20036;-51
2021/12/23 10:43:04;;;;;;;13.20;6.15;;;;;;;;;;5026676;28;20040;-52
2021/12/23 10:45:47;;;;;;;12.82;6.47;;;;;;;;;;5027513;28;20029;-54
2021/12/23 10:48:15;;;;;;;10.05;6.68;;;;;;;;;;5024095;28;20029;-50
2021/12/23 10:50:49;;;;;;;13.50;6.85;;;;;;;;;;5019405;28;20030;-54
2021/12/23 10:53:39;;;;;;;10.75;6.90;;;;;;;;;;5024659;28;20033;-55
2021/12/23 10:59:11;;;;;;;9.60;6.30;;;;;;;;;;5015042;28;20049;-47
2021/12/23 11:02:00;;;;;;;10.40;6.32;;;;;;;;;;5023452;28;20438;-53
2021/12/23 11:04:27;;;;;;;16.05;6.78;;;;;;;;;;5029291;28;20030;-48
2021/12/23 11:07:17;;;;;;;9.00;6.05;;;;;;;;;;5029566;28;20044;-55
2021/12/23 11:10:17;;;;;;;17.65;6.22;;;;;;;;;;5023445;28;20034;-53
2021/12/23 11:37:36;;;;;;;8.93;5.97;;;;;;;;;;5020159;28;20034;-50
2021/12/23 11:40:09;;;;;;;8.05;6.57;;;;;;;;;;5024042;28;20029;-53
2021/12/23 11:43:12;;;;;;;7.80;6.00;;;;;;;;;;5024686;28;20021;-55
2021/12/23 11:45:26;;;;;;;8.10;5.95;;;;;;;;;;5021583;28;20037;-51
2021/12/23 11:47:53;;;;;;;12.45;6.00;;;;;;;;;;5022154;28;20033;-48
2021/12/23 11:50:29;;;;;;;9.13;6.18;;;;;;;;;;5022826;28;20111;-49
2021/12/23 11:52:55;;;;;;;10.52;5.65;;;;;;;;;;5019654;28;20083;-54
2021/12/23 11:55:21;;;;;;;9.55;6.05;;;;;;;;;;5023425;28;20469;-50
2021/12/23 11:57:48;;;;;;;12.52;6.43;;;;;;;;;;5025156;28;20094;-54
2021/12/23 12:00:29;;;;;;;8.57;5.53;;;;;;;;;;5023333;28;20025;-50
2021/12/23 12:03:00;;;;;;;15.30;5.93;;;;;;;;;;5023131;28;20151;-54
2021/12/23 12:05:25;;;;;;;9.60;5.53;;;;;;;;;;5024864;28;20025;-52
2021/12/23 12:08:23;;;;;;;10.10;6.43;;;;;;;;;;5012915;28;20045;-52
2021/12/23 12:10:48;;;;;;;11.55;6.82;;;;;;;;;;5023074;28;20041;-52
2021/12/23 12:13:17;;;;;;;8.75;5.95;;;;;;;;;;5024237;28;20087;-52
2021/12/23 12:15:47;;;;;;;11.30;5.85;;;;;;;;;;5023654;28;20041;-56
2021/12/23 12:18:19;;;;;;;9.20;6.13;;;;;;;;;;5027781;28;20029;-54
2021/12/23 12:20:50;;;;;;;10.32;5.68;;;;;;;;;;5021383;28;20034;-55
2021/12/23 12:23:39;;;;;;;11.77;6.10;;;;;;;;;;5019963;28;20041;-53
2021/12/23 12:26:09;;;;;;;7.68;5.45;;;;;;;;;;5025560;28;20049;-54
2021/12/23 12:28:45;;;;;;;11.57;6.30;;;;;;;;;;5037570;28;20736;-56
2021/12/23 12:31:15;;;;;;;15.43;6.30;;;;;;;;;;5026633;28;20036;-55
2021/12/23 12:33:54;;;;;;;14.10;8.27;;;;;;;;;;5031905;28;20120;-55
2021/12/23 12:36:22;;;;;;;8.45;5.78;;;;;;;;;;5025162;28;20038;-51
2021/12/23 12:39:08;;;;;;;11.07;6.45;;;;;;;;;;5025278;28;21026;-55
2021/12/23 12:41:35;;;;;;;8.15;6.00;;;;;;;;;;5015745;28;20037;-54
2021/12/23 12:44:17;;;;;;;11.07;7.32;;;;;;;;;;5025398;28;20374;-53
2021/12/23 12:46:55;;;;;;;9.15;6.03;;;;;;;;;;5031623;28;20056;-52
2021/12/23 12:49:37;;;;;;;8.88;5.60;;;;;;;;;;5035935;28;20398;-55
2021/12/23 12:52:19;;;;;;;7.35;5.45;;;;;;;;;;5019451;28;20391;-53
2021/12/23 12:54:50;;;;;;;8.45;5.80;;;;;;;;;;5026635;28;20612;-55
2021/12/23 12:57:19;;;;;;;7.90;4.75;;;;;;;;;;5028913;28;20064;-53
2021/12/23 12:59:47;;;;;;;9.15;5.10;;;;;;;;;;5024851;28;20029;-54
2021/12/23 13:02:28;;;;;;;15.70;5.13;;;;;;;;;;5018348;28;20026;-52
2021/12/23 13:05:09;;;;;;;11.27;5.60;;;;;;;;;;5019074;28;20050;-53
2021/12/23 13:07:38;;;;;;;12.30;5.28;;;;;;;;;;5028143;28;20095;-52
2021/12/23 13:10:15;;;;;;;8.10;5.65;;;;;;;;;;5033804;28;20037;-56
2021/12/23 13:12:49;;;;;;;10.18;5.18;;;;;;;;;;5029516;28;20043;-55
2021/12/23 13:15:22;;;;;;;9.98;5.88;;;;;;;;;;5034684;28;20036;-54
2021/12/23 13:17:53;;;;;;;7.65;5.53;;;;;;;;;;5023516;28;20048;-55
2021/12/23 13:20:34;;;;;;;6.85;4.82;;;;;;;;;;5021481;28;20041;-55
2021/12/23 13:23:06;;;;;;;11.02;5.53;;;;;;;;;;5020743;28;20058;-55
2021/12/23 13:25:32;;;;;;;7.43;5.38;;;;;;;;;;5022915;28;20037;-48
2021/12/23 13:28:00;;;;;;;6.68;5.15;;;;;;;;;;5023595;28;20120;-50
2021/12/23 13:30:27;;;;;;;9.27;6.00;;;;;;;;;;5034316;28;20086;-48
2021/12/23 13:33:00;;;;;;;6.55;5.43;;;;;;;;;;5033889;28;20412;-52
2021/12/23 13:35:27;;;;;;;14.30;6.18;;;;;;;;;;5028830;28;20033;-52
2021/12/23 13:37:54;;;;;;;7.05;5.63;;;;;;;;;;5027538;28;20095;-47
2021/12/23 13:40:32;;;;;;;8.48;4.85;;;;;;;;;;5020101;28;20509;-47
2021/12/23 13:42:58;;;;;;;6.47;4.20;;;;;;;;;;5030534;28;20164;-52
2021/12/23 13:45:25;;;;;;;7.07;5.22;;;;;;;;;;5028667;28;20068;-49
2021/12/23 13:47:54;;;;;;;7.45;4.72;;;;;;;;;;5019135;28;20026;-49
2021/12/23 13:50:21;;;;;;;10.68;5.03;;;;;;;;;;5030474;28;20033;-50
2021/12/23 13:52:50;;;;;;;7.35;5.05;;;;;;;;;;5023732;28;20064;-51
2021/12/23 13:55:20;;;;;;;11.13;4.97;;;;;;;;;;5028636;28;20121;-47
2021/12/23 13:57:56;;;;;;;10.32;4.53;;;;;;;;;;5024315;28;20026;-52
2021/12/23 14:00:23;;;;;;;7.35;4.45;;;;;;;;;;5026453;28;20065;-48
2021/12/23 14:02:53;;;;;;;10.57;5.43;;;;;;;;;;5025075;28;20034;-47
2021/12/23 14:05:21;;;;;;;9.82;5.15;;;;;;;;;;5020352;28;20132;-48
2021/12/23 14:07:52;;;;;;;8.35;4.90;;;;;;;;;;5018256;28;20081;-51
2021/12/23 14:10:20;;;;;;;6.68;4.43;;;;;;;;;;5028320;28;20064;-50
2021/12/23 14:12:54;;;;;;;6.35;4.60;;;;;;;;;;5038284;28;20540;-49
2021/12/23 14:15:26;;;;;;;5.95;4.82;;;;;;;;;;5027609;28;20403;-48
2021/12/23 14:18:07;;;;;;;12.90;5.20;;;;;;;;;;5022193;28;20124;-49
2021/12/23 14:23:27;;;;;;;6.10;4.55;;;;;;;;;;5026765;28;20160;-49
2021/12/23 14:25:59;;;;;;;7.20;4.57;;;;;;;;;;5024762;28;20255;-53
2021/12/23 14:28:24;;;;;;;;;;;;;;;;;;5027767;28;20474;-47
2021/12/23 14:31:00;;;;;;;5.55;4.43;;;;;;;;;;5023944;28;19917;-52
2021/12/23 14:33:40;;;;;;;9.10;4.50;;;;;;;;;;5030680;28;20036;-47
2021/12/23 14:36:22;;;;;;;8.88;4.70;;;;;;;;;;5021523;28;20041;-48
2021/12/23 14:39:00;;;;;;;7.78;4.47;;;;;;;;;;5020378;28;20479;-49
2021/12/23 14:41:53;;;;;;;6.93;4.05;;;;;;;;;;5027993;28;20062;-52
2021/12/23 14:44:26;;;;;;;7.78;4.50;;;;;;;;;;5019005;28;20115;-48
2021/12/23 14:47:15;;;;;;;12.48;5.72;;;;;;;;;;5023634;28;20037;-49
2021/12/23 14:52:21;;;;;;;7.38;4.47;;;;;;;;;;5025781;28;20022;-52
2021/12/23 14:55:01;;;;;;;8.40;4.80;;;;;;;;;;5033569;28;20037;-49
2021/12/23 14:57:36;;;;;;;7.97;4.38;;;;;;;;;;5020731;28;20049;-49
2021/12/23 15:00:40;;;;;;;5.10;4.22;;;;;;;;;;5020695;28;20099;-51
2021/12/23 15:03:07;;;;;;;9.48;4.82;;;;;;;;;;4987500;28;20038;-53
2021/12/23 15:05:41;;;;;;;10.23;5.15;;;;;;;;;;5005460;28;20030;-53
2021/12/23 15:08:23;;;;;;;9.10;4.80;;;;;;;;;;5006499;28;20502;-51
2021/12/23 15:10:55;;;;;;;12.93;5.50;;;;;;;;;;5008643;28;20026;-50
2021/12/23 15:13:23;;;;;;;12.25;5.18;;;;;;;;;;5010560;28;20283;-50
2021/12/23 15:16:19;;;;;;;5.68;5.00;;;;;;;;;;5008852;28;20091;-52
2021/12/23 15:21:37;;;;;;;6.78;4.50;;;;;;;;;;5005128;28;20038;-48
2021/12/23 15:24:21;;;;;;;7.03;5.00;;;;;;;;;;5002836;28;20045;-50
2021/12/23 15:26:58;;;;;;;9.68;5.72;;;;;;;;;;5004802;28;20095;-50
2021/12/23 15:29:27;;;;;;;5.05;4.50;;;;;;;;;;5006893;28;20036;-48
2021/12/23 15:32:00;;;;;;;9.63;5.28;;;;;;;;;;5012681;28;20036;-53
2021/12/23 15:34:28;;;;;;;11.68;5.18;;;;;;;;;;5007980;28;20100;-49
2021/12/23 15:36:55;;;;;;;12.38;6.63;;;;;;;;;;5004101;28;20676;-50
2021/12/23 15:39:26;;;;;;;9.50;5.47;;;;;;;;;;5005510;28;20403;-49
2021/12/23 15:41:53;;;;;;;10.80;5.50;;;;;;;;;;5015626;28;20099;-51
2021/12/23 15:44:20;;;;;;;14.68;5.30;;;;;;;;;;5008496;28;20060;-50
2021/12/23 15:46:46;;;;;;;11.75;6.95;;;;;;;;;;5011882;28;20116;-50
2021/12/23 15:49:12;;;;;;;10.30;6.28;;;;;;;;;;5014374;28;20546;-49
2021/12/23 15:51:39;;;;;;;11.63;5.05;;;;;;;;;;5013433;28;20425;-49
2021/12/23 15:54:06;;;;;;;12.95;6.13;;;;;;;;;;5017800;28;20045;-50
2021/12/23 15:56:32;;;;;;;15.38;6.20;;;;;;;;;;5021989;28;20049;-48
2021/12/23 15:58:57;;;;;;;10.98;6.07;;;;;;;;;;5017627;28;20164;-52
2021/12/23 16:01:24;;;;;;;7.97;6.00;;;;;;;;;;5026707;28;20066;-54
2021/12/23 16:03:52;;;;;;;8.50;5.75;;;;;;;;;;5027665;28;20033;-53